Weather at Voghera-Rivanazzano Airport

Public forecast

Using degrees Celsius for public forecast. Weather courtesy of forecast.io.

Closest aviation weather report (METAR) to Voghera-Rivanazzano Airport

Closest report is Piacenza San Damiano Air Base, 30.1 nm (55.8 km) E.

2023/09/29 05:55 (retrieved 21 minutes ago)

LIMS 290555Z 25007KT CAVOK 14/14 Q1021

Closest aviation forecast (TAF) to Voghera-Rivanazzano Airport

Closest forecast is Milano Linate Airport, 31.6 nm (58.5 km) NNE.

2023/09/29 06:21 (retrieved 0 seconds ago)

TAF LIML 290500Z 2906/3006 VRB05KT CAVOK